sensor_id;sensor_type;location;lat;lon;timestamp;P1;durP1;ratioP1;P2;durP2;ratioP2
53903;SDS011;39812;52.430;16.936;2023-07-13T00:00:40;4.05;;;0.98;;
53903;SDS011;39812;52.430;16.936;2023-07-13T00:03:06;2.53;;;1.20;;
53903;SDS011;39812;52.430;16.936;2023-07-13T00:05:32;3.05;;;1.10;;
53903;SDS011;39812;52.430;16.936;2023-07-13T00:07:58;1.70;;;0.90;;
53903;SDS011;39812;52.430;16.936;2023-07-13T00:10:24;4.18;;;1.10;;
53903;SDS011;39812;52.430;16.936;2023-07-13T00:12:49;2.13;;;1.10;;
53903;SDS011;39812;52.430;16.936;2023-07-13T00:15:18;3.17;;;1.10;;
53903;SDS011;39812;52.430;16.936;2023-07-13T00:17:48;1.55;;;1.00;;
53903;SDS011;39812;52.430;16.936;2023-07-13T00:20:14;2.75;;;1.50;;
53903;SDS011;39812;52.430;16.936;2023-07-13T00:22:40;2.65;;;1.05;;
53903;SDS011;39812;52.430;16.936;2023-07-13T00:25:06;1.65;;;0.93;;
53903;SDS011;39812;52.430;16.936;2023-07-13T00:27:33;2.25;;;1.20;;
53903;SDS011;39812;52.430;16.936;2023-07-13T00:29:59;1.77;;;1.10;;
53903;SDS011;39812;52.430;16.936;2023-07-13T00:32:25;2.58;;;1.20;;
53903;SDS011;39812;52.430;16.936;2023-07-13T00:34:51;1.83;;;0.93;;
53903;SDS011;39812;52.430;16.936;2023-07-13T00:37:17;1.75;;;1.00;;
53903;SDS011;39812;52.430;16.936;2023-07-13T00:39:43;1.33;;;0.95;;
53903;SDS011;39812;52.430;16.936;2023-07-13T00:42:08;1.58;;;1.00;;
53903;SDS011;39812;52.430;16.936;2023-07-13T00:44:34;1.98;;;1.00;;
53903;SDS011;39812;52.430;16.936;2023-07-13T00:47:00;4.65;;;1.25;;
53903;SDS011;39812;52.430;16.936;2023-07-13T00:49:27;1.90;;;1.02;;
53903;SDS011;39812;52.430;16.936;2023-07-13T00:51:57;1.50;;;0.90;;
53903;SDS011;39812;52.430;16.936;2023-07-13T00:54:33;2.05;;;1.50;;
53903;SDS011;39812;52.430;16.936;2023-07-13T00:57:05;2.10;;;1.10;;
53903;SDS011;39812;52.430;16.936;2023-07-13T00:59:35;2.35;;;0.90;;
53903;SDS011;39812;52.430;16.936;2023-07-13T01:02:04;1.83;;;1.10;;
53903;SDS011;39812;52.430;16.936;2023-07-13T01:04:30;1.73;;;1.00;;
53903;SDS011;39812;52.430;16.936;2023-07-13T01:06:55;1.70;;;1.17;;
53903;SDS011;39812;52.430;16.936;2023-07-13T01:09:22;1.98;;;0.90;;
53903;SDS011;39812;52.430;16.936;2023-07-13T01:11:48;2.00;;;1.10;;
53903;SDS011;39812;52.430;16.936;2023-07-13T01:14:14;1.88;;;1.10;;
53903;SDS011;39812;52.430;16.936;2023-07-13T01:16:42;2.47;;;1.10;;
53903;SDS011;39812;52.430;16.936;2023-07-13T01:19:55;2.53;;;1.27;;
53903;SDS011;39812;52.430;16.936;2023-07-13T01:24:57;1.70;;;1.20;;
53903;SDS011;39812;52.430;16.936;2023-07-13T01:27:24;2.08;;;1.15;;
53903;SDS011;39812;52.430;16.936;2023-07-13T01:29:51;3.35;;;1.42;;
53903;SDS011;39812;52.430;16.936;2023-07-13T01:32:18;2.00;;;1.10;;
53903;SDS011;39812;52.430;16.936;2023-07-13T01:34:46;2.97;;;0.98;;
53903;SDS011;39812;52.430;16.936;2023-07-13T01:37:12;2.00;;;1.05;;
53903;SDS011;39812;52.430;16.936;2023-07-13T01:39:38;1.73;;;1.15;;
53903;SDS011;39812;52.430;16.936;2023-07-13T01:42:04;1.80;;;1.10;;
53903;SDS011;39812;52.430;16.936;2023-07-13T01:44:30;5.47;;;1.30;;
53903;SDS011;39812;52.430;16.936;2023-07-13T01:46:56;2.35;;;1.20;;
53903;SDS011;39812;52.430;16.936;2023-07-13T01:49:21;2.60;;;1.30;;
53903;SDS011;39812;52.430;16.936;2023-07-13T01:51:47;2.75;;;1.40;;
53903;SDS011;39812;52.430;16.936;2023-07-13T01:54:12;1.85;;;1.25;;
53903;SDS011;39812;52.430;16.936;2023-07-13T01:56:38;2.28;;;1.27;;
53903;SDS011;39812;52.430;16.936;2023-07-13T01:59:04;4.15;;;1.30;;
53903;SDS011;39812;52.430;16.936;2023-07-13T02:01:30;2.53;;;1.42;;
53903;SDS011;39812;52.430;16.936;2023-07-13T02:03:56;3.67;;;1.73;;
53903;SDS011;39812;52.430;16.936;2023-07-13T02:06:21;2.80;;;1.60;;
53903;SDS011;39812;52.430;16.936;2023-07-13T02:08:47;2.47;;;1.40;;
53903;SDS011;39812;52.430;16.936;2023-07-13T02:11:13;2.15;;;1.52;;
53903;SDS011;39812;52.430;16.936;2023-07-13T02:13:38;2.58;;;1.60;;
53903;SDS011;39812;52.430;16.936;2023-07-13T02:16:04;2.40;;;1.60;;
53903;SDS011;39812;52.430;16.936;2023-07-13T02:18:30;2.05;;;1.55;;
53903;SDS011;39812;52.430;16.936;2023-07-13T02:20:56;3.03;;;1.88;;
53903;SDS011;39812;52.430;16.936;2023-07-13T02:23:21;4.20;;;2.67;;
53903;SDS011;39812;52.430;16.936;2023-07-13T02:25:47;4.65;;;1.98;;
53903;SDS011;39812;52.430;16.936;2023-07-13T02:28:12;4.43;;;2.40;;
53903;SDS011;39812;52.430;16.936;2023-07-13T02:30:38;4.88;;;2.00;;
53903;SDS011;39812;52.430;16.936;2023-07-13T02:33:04;5.68;;;2.38;;
53903;SDS011;39812;52.430;16.936;2023-07-13T02:35:30;6.53;;;2.85;;
53903;SDS011;39812;52.430;16.936;2023-07-13T02:37:56;4.70;;;2.72;;
53903;SDS011;39812;52.430;16.936;2023-07-13T02:40:21;4.57;;;3.03;;
53903;SDS011;39812;52.430;16.936;2023-07-13T02:42:47;5.32;;;2.78;;
53903;SDS011;39812;52.430;16.936;2023-07-13T02:45:13;5.13;;;3.17;;
53903;SDS011;39812;52.430;16.936;2023-07-13T02:47:40;3.55;;;2.95;;
53903;SDS011;39812;52.430;16.936;2023-07-13T02:50:06;7.55;;;3.28;;
53903;SDS011;39812;52.430;16.936;2023-07-13T02:52:32;4.65;;;3.35;;
53903;SDS011;39812;52.430;16.936;2023-07-13T02:54:58;4.82;;;3.17;;
53903;SDS011;39812;52.430;16.936;2023-07-13T02:57:24;5.90;;;3.05;;
53903;SDS011;39812;52.430;16.936;2023-07-13T02:59:49;4.93;;;3.30;;
53903;SDS011;39812;52.430;16.936;2023-07-13T03:02:15;6.03;;;3.80;;
53903;SDS011;39812;52.430;16.936;2023-07-13T03:04:41;4.85;;;3.38;;
53903;SDS011;39812;52.430;16.936;2023-07-13T03:07:07;4.40;;;3.45;;
53903;SDS011;39812;52.430;16.936;2023-07-13T03:09:33;7.13;;;3.88;;
53903;SDS011;39812;52.430;16.936;2023-07-13T03:11:59;6.78;;;3.45;;
53903;SDS011;39812;52.430;16.936;2023-07-13T03:14:25;6.70;;;3.80;;
53903;SDS011;39812;52.430;16.936;2023-07-13T03:16:51;6.05;;;4.00;;
53903;SDS011;39812;52.430;16.936;2023-07-13T03:19:17;5.85;;;3.40;;
53903;SDS011;39812;52.430;16.936;2023-07-13T03:21:44;4.63;;;3.33;;
53903;SDS011;39812;52.430;16.936;2023-07-13T03:24:09;5.80;;;3.67;;
53903;SDS011;39812;52.430;16.936;2023-07-13T03:26:35;7.90;;;4.10;;
53903;SDS011;39812;52.430;16.936;2023-07-13T03:29:01;6.35;;;3.83;;
53903;SDS011;39812;52.430;16.936;2023-07-13T03:31:27;7.53;;;3.55;;
53903;SDS011;39812;52.430;16.936;2023-07-13T03:33:55;6.57;;;3.55;;
53903;SDS011;39812;52.430;16.936;2023-07-13T03:36:24;4.47;;;3.38;;
53903;SDS011;39812;52.430;16.936;2023-07-13T03:38:53;6.18;;;3.33;;
53903;SDS011;39812;52.430;16.936;2023-07-13T03:41:20;5.57;;;3.67;;
53903;SDS011;39812;52.430;16.936;2023-07-13T03:43:47;7.47;;;3.40;;
53903;SDS011;39812;52.430;16.936;2023-07-13T03:46:13;6.57;;;3.60;;
53903;SDS011;39812;52.430;16.936;2023-07-13T03:48:40;5.05;;;3.25;;
53903;SDS011;39812;52.430;16.936;2023-07-13T03:51:08;4.50;;;3.60;;
53903;SDS011;39812;52.430;16.936;2023-07-13T03:53:35;7.13;;;3.83;;
53903;SDS011;39812;52.430;16.936;2023-07-13T03:56:03;5.47;;;3.38;;
53903;SDS011;39812;52.430;16.936;2023-07-13T03:58:33;4.80;;;3.33;;
53903;SDS011;39812;52.430;16.936;2023-07-13T04:01:00;4.95;;;3.78;;
53903;SDS011;39812;52.430;16.936;2023-07-13T04:03:27;6.30;;;3.47;;
53903;SDS011;39812;52.430;16.936;2023-07-13T04:05:56;6.32;;;3.90;;
53903;SDS011;39812;52.430;16.936;2023-07-13T04:08:24;5.88;;;3.65;;
53903;SDS011;39812;52.430;16.936;2023-07-13T04:10:54;5.07;;;3.88;;
53903;SDS011;39812;52.430;16.936;2023-07-13T04:13:19;7.35;;;4.22;;
53903;SDS011;39812;52.430;16.936;2023-07-13T04:15:45;8.48;;;3.95;;
53903;SDS011;39812;52.430;16.936;2023-07-13T04:18:11;4.75;;;3.67;;
53903;SDS011;39812;52.430;16.936;2023-07-13T04:20:36;5.30;;;3.75;;
53903;SDS011;39812;52.430;16.936;2023-07-13T04:23:02;5.35;;;3.60;;
53903;SDS011;39812;52.430;16.936;2023-07-13T04:25:28;5.15;;;3.88;;
53903;SDS011;39812;52.430;16.936;2023-07-13T04:27:53;6.72;;;3.90;;
53903;SDS011;39812;52.430;16.936;2023-07-13T04:30:20;6.90;;;4.13;;
53903;SDS011;39812;52.430;16.936;2023-07-13T04:32:45;8.10;;;3.95;;
53903;SDS011;39812;52.430;16.936;2023-07-13T04:35:12;6.70;;;4.50;;
53903;SDS011;39812;52.430;16.936;2023-07-13T04:37:39;8.05;;;4.05;;
53903;SDS011;39812;52.430;16.936;2023-07-13T04:40:05;10.90;;;4.78;;
53903;SDS011;39812;52.430;16.936;2023-07-13T04:42:31;7.47;;;4.75;;
53903;SDS011;39812;52.430;16.936;2023-07-13T04:44:57;5.57;;;4.10;;
53903;SDS011;39812;52.430;16.936;2023-07-13T04:47:23;7.55;;;4.03;;
53903;SDS011;39812;52.430;16.936;2023-07-13T04:49:48;5.07;;;3.85;;
53903;SDS011;39812;52.430;16.936;2023-07-13T04:52:14;7.05;;;3.97;;
53903;SDS011;39812;52.430;16.936;2023-07-13T04:54:39;6.82;;;4.20;;
53903;SDS011;39812;52.430;16.936;2023-07-13T04:57:06;6.60;;;4.13;;
53903;SDS011;39812;52.430;16.936;2023-07-13T04:59:34;5.63;;;4.40;;
53903;SDS011;39812;52.430;16.936;2023-07-13T05:02:00;7.57;;;4.30;;
53903;SDS011;39812;52.430;16.936;2023-07-13T05:04:26;5.55;;;4.03;;
53903;SDS011;39812;52.430;16.936;2023-07-13T05:06:52;5.35;;;3.90;;
53903;SDS011;39812;52.430;16.936;2023-07-13T05:09:18;6.32;;;4.00;;
53903;SDS011;39812;52.430;16.936;2023-07-13T05:11:43;7.20;;;4.32;;
53903;SDS011;39812;52.430;16.936;2023-07-13T05:14:09;6.15;;;4.22;;
53903;SDS011;39812;52.430;16.936;2023-07-13T05:16:35;5.07;;;3.92;;
53903;SDS011;39812;52.430;16.936;2023-07-13T05:19:01;6.05;;;4.40;;
53903;SDS011;39812;52.430;16.936;2023-07-13T05:21:28;5.13;;;3.88;;
53903;SDS011;39812;52.430;16.936;2023-07-13T05:23:53;5.70;;;3.80;;
53903;SDS011;39812;52.430;16.936;2023-07-13T05:26:19;6.03;;;4.43;;
53903;SDS011;39812;52.430;16.936;2023-07-13T05:28:45;8.13;;;4.40;;
53903;SDS011;39812;52.430;16.936;2023-07-13T05:31:11;4.82;;;3.78;;
53903;SDS011;39812;52.430;16.936;2023-07-13T05:33:37;5.75;;;4.43;;
53903;SDS011;39812;52.430;16.936;2023-07-13T05:36:03;6.28;;;4.03;;
53903;SDS011;39812;52.430;16.936;2023-07-13T05:38:29;5.82;;;3.90;;
53903;SDS011;39812;52.430;16.936;2023-07-13T05:40:55;8.48;;;4.80;;
53903;SDS011;39812;52.430;16.936;2023-07-13T05:43:21;6.25;;;3.97;;
53903;SDS011;39812;52.430;16.936;2023-07-13T05:45:47;5.55;;;4.20;;
53903;SDS011;39812;52.430;16.936;2023-07-13T05:48:13;5.13;;;3.83;;
53903;SDS011;39812;52.430;16.936;2023-07-13T05:50:39;5.07;;;4.30;;
53903;SDS011;39812;52.430;16.936;2023-07-13T05:53:05;6.35;;;4.30;;
53903;SDS011;39812;52.430;16.936;2023-07-13T05:55:31;6.30;;;4.50;;
53903;SDS011;39812;52.430;16.936;2023-07-13T05:57:57;7.43;;;3.92;;
53903;SDS011;39812;52.430;16.936;2023-07-13T06:00:24;7.43;;;4.72;;
53903;SDS011;39812;52.430;16.936;2023-07-13T06:02:50;6.85;;;3.95;;
53903;SDS011;39812;52.430;16.936;2023-07-13T06:05:15;8.10;;;4.40;;
53903;SDS011;39812;52.430;16.936;2023-07-13T06:07:41;8.35;;;4.35;;
53903;SDS011;39812;52.430;16.936;2023-07-13T06:10:07;6.85;;;4.50;;
53903;SDS011;39812;52.430;16.936;2023-07-13T06:12:33;5.72;;;4.10;;
53903;SDS011;39812;52.430;16.936;2023-07-13T06:14:58;7.35;;;4.55;;
53903;SDS011;39812;52.430;16.936;2023-07-13T06:17:24;8.02;;;4.32;;
53903;SDS011;39812;52.430;16.936;2023-07-13T06:19:50;7.70;;;4.32;;
53903;SDS011;39812;52.430;16.936;2023-07-13T06:22:15;6.20;;;4.03;;
53903;SDS011;39812;52.430;16.936;2023-07-13T06:24:41;6.97;;;4.57;;
53903;SDS011;39812;52.430;16.936;2023-07-13T06:27:07;7.75;;;4.20;;
53903;SDS011;39812;52.430;16.936;2023-07-13T06:29:32;9.80;;;4.63;;
53903;SDS011;39812;52.430;16.936;2023-07-13T06:31:58;7.28;;;4.40;;
53903;SDS011;39812;52.430;16.936;2023-07-13T06:34:24;11.68;;;4.25;;
53903;SDS011;39812;52.430;16.936;2023-07-13T06:36:49;6.82;;;4.30;;
53903;SDS011;39812;52.430;16.936;2023-07-13T06:39:15;7.43;;;4.40;;
53903;SDS011;39812;52.430;16.936;2023-07-13T06:41:41;7.90;;;4.13;;
53903;SDS011;39812;52.430;16.936;2023-07-13T06:44:06;7.10;;;4.18;;
53903;SDS011;39812;52.430;16.936;2023-07-13T06:46:32;7.68;;;3.97;;
53903;SDS011;39812;52.430;16.936;2023-07-13T06:48:58;6.53;;;3.63;;
53903;SDS011;39812;52.430;16.936;2023-07-13T06:51:23;6.18;;;4.07;;
53903;SDS011;39812;52.430;16.936;2023-07-13T06:53:50;6.72;;;3.75;;
53903;SDS011;39812;52.430;16.936;2023-07-13T06:56:16;7.65;;;3.40;;
53903;SDS011;39812;52.430;16.936;2023-07-13T06:58:42;6.15;;;3.40;;
53903;SDS011;39812;52.430;16.936;2023-07-13T07:01:08;9.13;;;3.80;;
53903;SDS011;39812;52.430;16.936;2023-07-13T07:03:34;6.97;;;3.42;;
53903;SDS011;39812;52.430;16.936;2023-07-13T07:06:00;8.80;;;4.05;;
53903;SDS011;39812;52.430;16.936;2023-07-13T07:08:49;8.30;;;3.95;;
53903;SDS011;39812;52.430;16.936;2023-07-13T07:11:20;10.60;;;4.30;;
53903;SDS011;39812;52.430;16.936;2023-07-13T07:13:50;7.20;;;4.68;;
53903;SDS011;39812;52.430;16.936;2023-07-13T07:16:17;17.27;;;4.15;;
53903;SDS011;39812;52.430;16.936;2023-07-13T07:18:43;7.28;;;3.78;;
53903;SDS011;39812;52.430;16.936;2023-07-13T07:21:09;6.70;;;3.47;;
53903;SDS011;39812;52.430;16.936;2023-07-13T07:23:35;7.90;;;3.88;;
53903;SDS011;39812;52.430;16.936;2023-07-13T07:26:01;4.32;;;3.42;;
53903;SDS011;39812;52.430;16.936;2023-07-13T07:28:27;3.80;;;2.83;;
53903;SDS011;39812;52.430;16.936;2023-07-13T07:30:53;6.45;;;2.95;;
53903;SDS011;39812;52.430;16.936;2023-07-13T07:33:23;5.10;;;2.95;;
53903;SDS011;39812;52.430;16.936;2023-07-13T07:35:50;6.10;;;3.40;;
53903;SDS011;39812;52.430;16.936;2023-07-13T07:38:16;4.15;;;2.67;;
53903;SDS011;39812;52.430;16.936;2023-07-13T07:40:41;5.45;;;3.47;;
53903;SDS011;39812;52.430;16.936;2023-07-13T07:43:08;6.72;;;3.10;;
53903;SDS011;39812;52.430;16.936;2023-07-13T07:45:35;6.63;;;2.65;;
53903;SDS011;39812;52.430;16.936;2023-07-13T07:48:02;7.68;;;3.13;;
53903;SDS011;39812;52.430;16.936;2023-07-13T07:50:28;4.68;;;2.20;;
53903;SDS011;39812;52.430;16.936;2023-07-13T07:52:54;3.60;;;2.15;;
53903;SDS011;39812;52.430;16.936;2023-07-13T07:55:23;4.22;;;2.05;;
53903;SDS011;39812;52.430;16.936;2023-07-13T07:57:51;4.93;;;2.40;;
53903;SDS011;39812;52.430;16.936;2023-07-13T08:00:17;4.97;;;2.53;;
53903;SDS011;39812;52.430;16.936;2023-07-13T08:02:43;4.57;;;2.50;;
53903;SDS011;39812;52.430;16.936;2023-07-13T08:05:10;5.43;;;2.20;;
53903;SDS011;39812;52.430;16.936;2023-07-13T08:07:37;6.82;;;2.45;;
53903;SDS011;39812;52.430;16.936;2023-07-13T08:10:03;4.70;;;2.40;;
53903;SDS011;39812;52.430;16.936;2023-07-13T08:12:29;8.02;;;3.42;;
53903;SDS011;39812;52.430;16.936;2023-07-13T08:14:58;4.63;;;2.85;;
53903;SDS011;39812;52.430;16.936;2023-07-13T08:17:25;4.50;;;2.70;;
53903;SDS011;39812;52.430;16.936;2023-07-13T08:19:51;7.28;;;3.03;;
53903;SDS011;39812;52.430;16.936;2023-07-13T08:22:17;5.07;;;2.50;;
53903;SDS011;39812;52.430;16.936;2023-07-13T08:24:42;5.40;;;2.78;;
53903;SDS011;39812;52.430;16.936;2023-07-13T08:27:10;6.57;;;2.78;;
53903;SDS011;39812;52.430;16.936;2023-07-13T08:29:36;8.05;;;2.58;;
53903;SDS011;39812;52.430;16.936;2023-07-13T08:32:02;5.32;;;2.80;;
53903;SDS011;39812;52.430;16.936;2023-07-13T08:34:29;4.85;;;2.92;;
53903;SDS011;39812;52.430;16.936;2023-07-13T08:36:55;9.30;;;3.13;;
53903;SDS011;39812;52.430;16.936;2023-07-13T08:39:21;5.32;;;2.40;;
53903;SDS011;39812;52.430;16.936;2023-07-13T08:41:47;7.00;;;3.55;;
53903;SDS011;39812;52.430;16.936;2023-07-13T08:44:21;7.32;;;2.90;;
53903;SDS011;39812;52.430;16.936;2023-07-13T08:46:52;5.72;;;2.78;;
53903;SDS011;39812;52.430;16.936;2023-07-13T08:49:22;6.13;;;3.08;;
53903;SDS011;39812;52.430;16.936;2023-07-13T08:51:59;8.55;;;3.88;;
53903;SDS011;39812;52.430;16.936;2023-07-13T08:54:36;5.95;;;3.30;;
53903;SDS011;39812;52.430;16.936;2023-07-13T08:57:14;11.23;;;3.80;;
53903;SDS011;39812;52.430;16.936;2023-07-13T08:59:43;11.68;;;3.60;;
53903;SDS011;39812;52.430;16.936;2023-07-13T09:04:54;5.82;;;4.30;;
53903;SDS011;39812;52.430;16.936;2023-07-13T09:10:23;8.35;;;3.40;;
53903;SDS011;39812;52.430;16.936;2023-07-13T09:15:41;9.60;;;4.53;;
53903;SDS011;39812;52.430;16.936;2023-07-13T09:18:14;6.25;;;4.10;;
53903;SDS011;39812;52.430;16.936;2023-07-13T09:21:33;5.25;;;3.78;;
53903;SDS011;39812;52.430;16.936;2023-07-13T09:23:37;6.43;;;3.47;;
53903;SDS011;39812;52.430;16.936;2023-07-13T09:26:05;6.55;;;3.25;;
53903;SDS011;39812;52.430;16.936;2023-07-13T09:31:40;7.60;;;4.03;;
53903;SDS011;39812;52.430;16.936;2023-07-13T09:34:10;5.80;;;3.42;;
53903;SDS011;39812;52.430;16.936;2023-07-13T09:36:36;7.07;;;3.60;;
53903;SDS011;39812;52.430;16.936;2023-07-13T09:41:45;5.75;;;3.60;;
53903;SDS011;39812;52.430;16.936;2023-07-13T09:44:29;6.00;;;3.95;;
53903;SDS011;39812;52.430;16.936;2023-07-13T09:46:58;4.65;;;3.40;;
53903;SDS011;39812;52.430;16.936;2023-07-13T09:49:25;5.10;;;3.22;;
53903;SDS011;39812;52.430;16.936;2023-07-13T09:51:57;6.10;;;3.60;;
53903;SDS011;39812;52.430;16.936;2023-07-13T09:54:25;6.78;;;3.10;;
53903;SDS011;39812;52.430;16.936;2023-07-13T09:56:57;7.85;;;3.50;;
53903;SDS011;39812;52.430;16.936;2023-07-13T09:59:27;6.63;;;3.03;;
53903;SDS011;39812;52.430;16.936;2023-07-13T10:01:55;4.70;;;2.65;;
53903;SDS011;39812;52.430;16.936;2023-07-13T10:04:26;5.90;;;3.03;;
53903;SDS011;39812;52.430;16.936;2023-07-13T10:07:04;4.45;;;2.35;;
53903;SDS011;39812;52.430;16.936;2023-07-13T10:09:32;5.38;;;2.65;;
53903;SDS011;39812;52.430;16.936;2023-07-13T10:11:57;9.30;;;2.80;;
53903;SDS011;39812;52.430;16.936;2023-07-13T10:14:23;6.68;;;2.42;;
53903;SDS011;39812;52.430;16.936;2023-07-13T10:16:52;6.93;;;2.88;;
53903;SDS011;39812;52.430;16.936;2023-07-13T10:19:27;6.07;;;2.88;;
53903;SDS011;39812;52.430;16.936;2023-07-13T10:22:02;6.07;;;2.67;;
53903;SDS011;39812;52.430;16.936;2023-07-13T10:24:38;5.97;;;2.60;;
53903;SDS011;39812;52.430;16.936;2023-07-13T10:27:18;8.45;;;2.78;;
53903;SDS011;39812;52.430;16.936;2023-07-13T10:32:21;5.80;;;2.70;;
53903;SDS011;39812;52.430;16.936;2023-07-13T10:34:49;6.20;;;3.08;;
53903;SDS011;39812;52.430;16.936;2023-07-13T10:37:19;4.97;;;2.80;;
53903;SDS011;39812;52.430;16.936;2023-07-13T10:39:48;7.15;;;3.22;;
53903;SDS011;39812;52.430;16.936;2023-07-13T10:42:28;4.72;;;2.58;;
53903;SDS011;39812;52.430;16.936;2023-07-13T10:44:57;6.47;;;2.50;;
53903;SDS011;39812;52.430;16.936;2023-07-13T10:47:22;6.13;;;2.20;;
53903;SDS011;39812;52.430;16.936;2023-07-13T10:49:50;5.07;;;2.17;;
53903;SDS011;39812;52.430;16.936;2023-07-13T10:53:02;5.72;;;2.35;;
53903;SDS011;39812;52.430;16.936;2023-07-13T10:55:32;5.65;;;2.50;;
53903;SDS011;39812;52.430;16.936;2023-07-13T10:58:11;6.15;;;2.20;;
53903;SDS011;39812;52.430;16.936;2023-07-13T11:00:49;4.63;;;2.20;;
53903;SDS011;39812;52.430;16.936;2023-07-13T11:03:22;3.90;;;2.15;;
53903;SDS011;39812;52.430;16.936;2023-07-13T11:05:51;4.05;;;2.40;;
53903;SDS011;39812;52.430;16.936;2023-07-13T11:08:38;3.92;;;2.33;;
53903;SDS011;39812;52.430;16.936;2023-07-13T11:13:55;4.75;;;2.58;;
53903;SDS011;39812;52.430;16.936;2023-07-13T11:16:34;5.93;;;2.60;;
53903;SDS011;39812;52.430;16.936;2023-07-13T11:19:23;4.90;;;2.30;;
53903;SDS011;39812;52.430;16.936;2023-07-13T11:30:13;4.97;;;2.13;;
53903;SDS011;39812;52.430;16.936;2023-07-13T11:32:43;4.97;;;2.05;;
53903;SDS011;39812;52.430;16.936;2023-07-13T11:35:13;7.43;;;2.28;;
53903;SDS011;39812;52.430;16.936;2023-07-13T11:37:44;6.65;;;1.95;;
53903;SDS011;39812;52.430;16.936;2023-07-13T11:40:13;5.60;;;1.92;;
53903;SDS011;39812;52.430;16.936;2023-07-13T11:42:39;3.53;;;1.90;;
53903;SDS011;39812;52.430;16.936;2023-07-13T11:45:14;4.88;;;2.17;;
53903;SDS011;39812;52.430;16.936;2023-07-13T11:47:48;4.43;;;2.10;;
53903;SDS011;39812;52.430;16.936;2023-07-13T11:50:18;6.15;;;2.10;;
53903;SDS011;39812;52.430;16.936;2023-07-13T11:52:46;3.63;;;1.95;;
53903;SDS011;39812;52.430;16.936;2023-07-13T11:55:14;5.10;;;2.00;;
53903;SDS011;39812;52.430;16.936;2023-07-13T11:58:01;5.18;;;2.40;;
53903;SDS011;39812;52.430;16.936;2023-07-13T12:00:29;3.72;;;1.85;;
53903;SDS011;39812;52.430;16.936;2023-07-13T12:02:59;4.22;;;1.80;;
53903;SDS011;39812;52.430;16.936;2023-07-13T12:05:27;5.70;;;1.40;;
53903;SDS011;39812;52.430;16.936;2023-07-13T12:07:53;5.82;;;1.23;;
53903;SDS011;39812;52.430;16.936;2023-07-13T12:12:53;3.25;;;1.38;;
53903;SDS011;39812;52.430;16.936;2023-07-13T12:15:22;3.63;;;1.23;;
53903;SDS011;39812;52.430;16.936;2023-07-13T12:17:53;2.05;;;1.10;;
53903;SDS011;39812;52.430;16.936;2023-07-13T12:20:26;2.15;;;1.25;;
53903;SDS011;39812;52.430;16.936;2023-07-13T12:22:58;3.80;;;1.33;;
53903;SDS011;39812;52.430;16.936;2023-07-13T12:25:24;2.60;;;0.95;;
53903;SDS011;39812;52.430;16.936;2023-07-13T12:27:51;1.65;;;0.77;;
53903;SDS011;39812;52.430;16.936;2023-07-13T12:32:59;2.67;;;1.02;;
53903;SDS011;39812;52.430;16.936;2023-07-13T12:35:27;2.53;;;1.08;;
53903;SDS011;39812;52.430;16.936;2023-07-13T12:37:56;2.60;;;1.10;;
53903;SDS011;39812;52.430;16.936;2023-07-13T12:40:27;2.05;;;1.00;;
53903;SDS011;39812;52.430;16.936;2023-07-13T12:42:57;2.92;;;0.82;;
53903;SDS011;39812;52.430;16.936;2023-07-13T12:45:24;2.85;;;0.98;;
53903;SDS011;39812;52.430;16.936;2023-07-13T12:48:02;3.15;;;1.30;;
53903;SDS011;39812;52.430;16.936;2023-07-13T12:50:37;2.78;;;1.23;;
53903;SDS011;39812;52.430;16.936;2023-07-13T12:53:09;2.95;;;1.10;;
53903;SDS011;39812;52.430;16.936;2023-07-13T12:55:42;2.50;;;1.10;;
53903;SDS011;39812;52.430;16.936;2023-07-13T12:58:16;1.90;;;1.03;;
53903;SDS011;39812;52.430;16.936;2023-07-13T13:00:55;4.38;;;1.20;;
53903;SDS011;39812;52.430;16.936;2023-07-13T13:03:33;4.45;;;1.20;;
53903;SDS011;39812;52.430;16.936;2023-07-13T13:06:02;3.20;;;0.88;;
53903;SDS011;39812;52.430;16.936;2023-07-13T13:08:33;2.38;;;0.82;;
53903;SDS011;39812;52.430;16.936;2023-07-13T13:11:03;3.92;;;0.98;;
53903;SDS011;39812;52.430;16.936;2023-07-13T13:13:29;5.07;;;1.25;;
53903;SDS011;39812;52.430;16.936;2023-07-13T13:15:55;2.20;;;1.05;;
53903;SDS011;39812;52.430;16.936;2023-07-13T13:18:22;3.30;;;1.02;;
53903;SDS011;39812;52.430;16.936;2023-07-13T13:20:49;3.83;;;1.10;;
53903;SDS011;39812;52.430;16.936;2023-07-13T13:23:16;2.88;;;0.93;;
53903;SDS011;39812;52.430;16.936;2023-07-13T13:25:47;3.22;;;0.82;;
53903;SDS011;39812;52.430;16.936;2023-07-13T13:28:16;2.60;;;0.80;;
53903;SDS011;39812;52.430;16.936;2023-07-13T13:30:44;1.83;;;1.00;;
53903;SDS011;39812;52.430;16.936;2023-07-13T13:33:13;2.35;;;1.10;;
53903;SDS011;39812;52.430;16.936;2023-07-13T13:35:40;3.30;;;1.17;;
53903;SDS011;39812;52.430;16.936;2023-07-13T13:38:12;3.45;;;1.10;;
53903;SDS011;39812;52.430;16.936;2023-07-13T13:40:39;2.38;;;1.00;;
53903;SDS011;39812;52.430;16.936;2023-07-13T13:43:21;3.05;;;0.98;;
53903;SDS011;39812;52.430;16.936;2023-07-13T13:45:51;1.55;;;0.82;;
53903;SDS011;39812;52.430;16.936;2023-07-13T13:48:19;2.72;;;1.00;;
53903;SDS011;39812;52.430;16.936;2023-07-13T13:50:55;3.05;;;0.90;;
53903;SDS011;39812;52.430;16.936;2023-07-13T13:53:21;4.55;;;0.90;;
53903;SDS011;39812;52.430;16.936;2023-07-13T13:55:48;3.03;;;1.15;;
53903;SDS011;39812;52.430;16.936;2023-07-13T13:58:14;2.53;;;0.80;;
53903;SDS011;39812;52.430;16.936;2023-07-13T14:00:40;2.85;;;1.00;;
53903;SDS011;39812;52.430;16.936;2023-07-13T14:03:08;1.83;;;1.10;;
53903;SDS011;39812;52.430;16.936;2023-07-13T14:05:43;2.42;;;0.82;;
53903;SDS011;39812;52.430;16.936;2023-07-13T14:08:12;1.75;;;0.85;;
53903;SDS011;39812;52.430;16.936;2023-07-13T14:10:44;1.85;;;0.80;;
53903;SDS011;39812;52.430;16.936;2023-07-13T14:13:19;3.50;;;0.93;;
53903;SDS011;39812;52.430;16.936;2023-07-13T14:15:54;2.45;;;0.90;;
53903;SDS011;39812;52.430;16.936;2023-07-13T14:18:20;2.42;;;1.10;;
53903;SDS011;39812;52.430;16.936;2023-07-13T14:20:48;3.53;;;0.88;;
53903;SDS011;39812;52.430;16.936;2023-07-13T14:23:17;2.47;;;0.88;;
53903;SDS011;39812;52.430;16.936;2023-07-13T14:25:43;2.70;;;1.00;;
53903;SDS011;39812;52.430;16.936;2023-07-13T14:30:52;2.45;;;0.80;;
53903;SDS011;39812;52.430;16.936;2023-07-13T14:33:19;2.95;;;1.10;;
53903;SDS011;39812;52.430;16.936;2023-07-13T14:35:45;2.17;;;1.05;;
53903;SDS011;39812;52.430;16.936;2023-07-13T14:38:13;1.20;;;0.70;;
53903;SDS011;39812;52.430;16.936;2023-07-13T14:40:41;4.07;;;0.90;;
53903;SDS011;39812;52.430;16.936;2023-07-13T14:43:09;1.58;;;0.80;;
53903;SDS011;39812;52.430;16.936;2023-07-13T14:45:49;1.70;;;0.88;;
53903;SDS011;39812;52.430;16.936;2023-07-13T14:48:19;1.80;;;0.88;;
53903;SDS011;39812;52.430;16.936;2023-07-13T14:50:49;4.28;;;1.02;;
53903;SDS011;39812;52.430;16.936;2023-07-13T14:53:18;2.70;;;0.98;;
53903;SDS011;39812;52.430;16.936;2023-07-13T14:55:45;2.63;;;1.00;;
53903;SDS011;39812;52.430;16.936;2023-07-13T14:58:10;2.42;;;1.00;;
53903;SDS011;39812;52.430;16.936;2023-07-13T15:00:36;2.22;;;0.80;;
53903;SDS011;39812;52.430;16.936;2023-07-13T15:03:02;5.32;;;1.25;;
53903;SDS011;39812;52.430;16.936;2023-07-13T15:05:32;1.83;;;0.80;;
53903;SDS011;39812;52.430;16.936;2023-07-13T15:07:59;3.40;;;0.90;;
53903;SDS011;39812;52.430;16.936;2023-07-13T15:10:30;1.40;;;0.88;;
53903;SDS011;39812;52.430;16.936;2023-07-13T15:12:58;2.65;;;0.85;;
53903;SDS011;39812;52.430;16.936;2023-07-13T15:15:41;1.73;;;0.70;;
53903;SDS011;39812;52.430;16.936;2023-07-13T15:18:11;1.42;;;0.85;;